createdAt,value
2023-02-19T00:00:25.081Z,15
2023-02-19T00:05:30.205Z,15
2023-02-19T00:10:35.350Z,15
2023-02-19T00:15:40.485Z,15
2023-02-19T00:20:45.627Z,15
2023-02-19T00:25:51.764Z,15
2023-02-19T00:30:57.873Z,15
2023-02-19T00:36:03.947Z,15
2023-02-19T00:41:10.051Z,14.5
2023-02-19T00:46:16.160Z,14.5
2023-02-19T00:51:22.274Z,14.5
2023-02-19T00:56:28.376Z,15
2023-02-19T01:01:34.501Z,15
2023-02-19T01:06:40.639Z,15
2023-02-19T01:11:46.733Z,15
2023-02-19T01:16:52.872Z,14.5
2023-02-19T01:21:58.947Z,15
2023-02-19T01:27:04.087Z,14.5
2023-02-19T01:32:10.173Z,15
2023-02-19T01:37:16.297Z,15
2023-02-19T01:42:22.405Z,15
2023-02-19T01:47:28.534Z,14.5
2023-02-19T01:52:34.654Z,15
2023-02-19T01:57:40.761Z,14.5
2023-02-19T02:02:45.919Z,15
2023-02-19T02:07:51.046Z,15
2023-02-19T02:12:56.183Z,14.5
2023-02-19T02:18:01.294Z,14.5
2023-02-19T02:23:07.426Z,15
2023-02-19T02:28:13.565Z,14.5
2023-02-19T02:33:19.655Z,14.5
2023-02-19T02:43:31.897Z,15
2023-02-19T02:48:38.034Z,15
2023-02-19T02:53:44.166Z,14.5
2023-02-19T02:58:50.275Z,15
2023-02-19T03:03:56.407Z,15
2023-02-19T03:09:02.441Z,15
2023-02-19T03:14:08.546Z,14.5
2023-02-19T03:19:14.879Z,15
2023-02-19T03:24:19.797Z,15
2023-02-19T03:29:25.910Z,15
2023-02-19T03:34:32.076Z,15
2023-02-19T03:39:38.151Z,15.5
2023-02-19T03:44:44.263Z,15.5
2023-02-19T03:49:50.369Z,15.5
2023-02-19T03:54:56.473Z,16
2023-02-19T04:00:02.595Z,16.5
2023-02-19T04:05:07.752Z,16.5
2023-02-19T04:10:12.853Z,17
2023-02-19T04:15:18.008Z,17.5
2023-02-19T04:20:23.152Z,17
2023-02-19T04:25:29.265Z,17.5
2023-02-19T04:30:35.387Z,17.5
2023-02-19T04:35:41.494Z,17.5
2023-02-19T04:40:47.600Z,18
2023-02-19T04:45:53.730Z,17.5
2023-02-19T04:50:59.853Z,17.5
2023-02-19T04:56:05.966Z,17.5
2023-02-19T05:01:12.134Z,17.5
2023-02-19T05:06:18.207Z,17
2023-02-19T05:11:24.322Z,17.5
2023-02-19T05:16:30.458Z,17.5
2023-02-19T05:21:36.575Z,17.5
2023-02-19T05:26:41.708Z,17
2023-02-19T05:31:47.811Z,17.5
2023-02-19T05:36:53.968Z,17.5
2023-02-19T05:42:00.088Z,17.5
2023-02-19T05:47:06.164Z,18
2023-02-19T05:52:12.301Z,17.5
2023-02-19T05:57:18.419Z,17.5
2023-02-19T06:02:23.550Z,17.5
2023-02-19T06:07:28.680Z,17.5
2023-02-19T06:12:34.802Z,17.5
2023-02-19T06:17:40.917Z,17
2023-02-19T06:22:47.046Z,17.5
2023-02-19T06:27:53.165Z,17
2023-02-19T06:32:59.284Z,17
2023-02-19T06:38:05.389Z,17.5
2023-02-19T06:43:11.505Z,17.5
2023-02-19T06:48:17.620Z,17.5
2023-02-19T06:53:23.741Z,17.5
2023-02-19T06:58:29.874Z,17
2023-02-19T07:03:35.999Z,17
2023-02-19T07:08:42.127Z,17
2023-02-19T07:13:47.229Z,17
2023-02-19T07:18:53.366Z,17
2023-02-19T07:23:59.484Z,17
2023-02-19T07:29:05.613Z,17
2023-02-19T07:34:11.771Z,17
2023-02-19T07:39:17.830Z,17
2023-02-19T07:44:23.952Z,17
2023-02-19T07:49:29.080Z,16.5
2023-02-19T07:54:34.221Z,17
2023-02-19T07:59:40.407Z,17
2023-02-19T08:04:45.539Z,16.5
2023-02-19T08:09:50.623Z,16.5
2023-02-19T08:14:56.771Z,17
2023-02-19T08:20:01.909Z,16.5
2023-02-19T08:25:07.087Z,16.5
2023-02-19T08:30:13.130Z,16.5
2023-02-19T08:35:19.242Z,16.5
2023-02-19T08:40:25.371Z,16.5
2023-02-19T08:45:31.492Z,16.5
2023-02-19T08:50:37.613Z,16.5
2023-02-19T08:55:43.773Z,16.5
2023-02-19T09:00:49.912Z,16.5
2023-02-19T09:05:55.990Z,16.5
2023-02-19T09:11:02.062Z,16.5
2023-02-19T09:16:08.187Z,16.5
2023-02-19T09:21:14.298Z,16.5
2023-02-19T09:26:20.423Z,16.5
2023-02-19T09:31:25.568Z,16.5
2023-02-19T09:36:31.680Z,16.5
2023-02-19T09:46:43.929Z,16.5
2023-02-19T09:51:50.025Z,16.5
2023-02-19T09:56:56.127Z,16.5
2023-02-19T10:02:02.264Z,16.5
2023-02-19T10:07:08.379Z,16
2023-02-19T10:12:13.534Z,16.5
2023-02-19T10:17:18.644Z,16.5
2023-02-19T10:22:24.758Z,16.5
2023-02-19T10:27:30.873Z,16
2023-02-19T10:32:36.989Z,16
2023-02-19T10:37:43.093Z,16
2023-02-19T10:42:49.214Z,16.5
2023-02-19T10:47:55.361Z,16
2023-02-19T10:53:01.434Z,16.5
2023-02-19T10:58:07.549Z,16
2023-02-19T11:03:13.715Z,16
2023-02-19T11:08:18.790Z,16
2023-02-19T11:13:24.958Z,16
2023-02-19T11:18:31.088Z,16
2023-02-19T11:23:37.141Z,16
2023-02-19T11:28:43.231Z,16
2023-02-19T11:33:49.358Z,15.5
2023-02-19T11:38:55.467Z,16
2023-02-19T11:44:01.581Z,15.5
2023-02-19T11:49:07.691Z,15.5
2023-02-19T11:54:13.822Z,15.5
2023-02-19T11:59:18.990Z,16
2023-02-19T12:04:24.062Z,15.5
2023-02-19T12:09:30.161Z,15.5
2023-02-19T12:14:36.286Z,15.5
2023-02-19T12:19:42.451Z,15.5
2023-02-19T12:24:48.506Z,15.5
2023-02-19T12:29:54.626Z,15.5
2023-02-19T12:35:00.748Z,15.5
2023-02-19T12:40:06.861Z,15.5
2023-02-19T12:45:12.979Z,15.5
2023-02-19T12:50:19.093Z,15.5
2023-02-19T12:55:25.193Z,15.5
2023-02-19T13:00:31.572Z,15
2023-02-19T13:05:37.422Z,15
2023-02-19T13:10:42.558Z,15
2023-02-19T13:15:48.690Z,15
2023-02-19T13:20:54.775Z,15
2023-02-19T13:26:00.903Z,15
2023-02-19T13:31:06.994Z,15.5
2023-02-19T13:36:13.142Z,15
2023-02-19T13:41:19.259Z,15.5
2023-02-19T13:46:24.408Z,15.5
2023-02-19T13:51:29.520Z,15
2023-02-19T13:56:35.631Z,15
2023-02-19T14:01:41.731Z,15.5
2023-02-19T14:06:47.853Z,15.5
2023-02-19T14:11:54.013Z,15
2023-02-19T14:17:00.367Z,15
2023-02-19T14:22:06.281Z,15
2023-02-19T14:27:12.335Z,15
2023-02-19T14:32:18.416Z,15
2023-02-19T14:37:24.509Z,15
2023-02-19T14:42:30.631Z,15
2023-02-19T14:47:36.763Z,15
2023-02-19T14:52:42.988Z,15
2023-02-19T14:57:48.110Z,15
2023-02-19T15:02:54.107Z,15
2023-02-19T15:08:00.231Z,15
2023-02-19T15:13:06.322Z,15
2023-02-19T15:18:12.447Z,15
2023-02-19T15:23:18.546Z,15
2023-02-19T15:28:24.689Z,15
2023-02-19T15:33:29.873Z,15
2023-02-19T15:38:34.929Z,15
2023-02-19T15:43:41.043Z,15
2023-02-19T15:48:47.161Z,15
2023-02-19T15:53:53.291Z,14.5
2023-02-19T15:58:59.394Z,15
2023-02-19T16:04:05.600Z,14.5
2023-02-19T16:09:11.721Z,15
2023-02-19T16:14:17.755Z,15
2023-02-19T16:19:23.913Z,14.5
2023-02-19T16:24:30.037Z,14.5
2023-02-19T16:29:36.143Z,15
2023-02-19T16:34:42.264Z,14.5
2023-02-19T16:39:48.353Z,15
2023-02-19T16:44:53.500Z,14.5
2023-02-19T16:49:59.604Z,15
2023-02-19T16:55:05.737Z,14.5
2023-02-19T17:00:11.924Z,14.5
2023-02-19T17:05:17.967Z,14.5
2023-02-19T17:10:24.097Z,14.5
2023-02-19T17:15:30.195Z,14.5
2023-02-19T17:20:36.316Z,14.5
2023-02-19T17:25:42.420Z,14.5
2023-02-19T17:30:48.545Z,15
2023-02-19T17:35:54.691Z,14.5
2023-02-19T17:41:00.782Z,14.5
2023-02-19T17:46:06.891Z,14.5
2023-02-19T17:51:12.077Z,14.5
2023-02-19T17:56:18.138Z,14.5
2023-02-19T18:01:24.256Z,14.5
2023-02-19T18:06:30.411Z,14.5
2023-02-19T18:11:36.488Z,14.5
2023-02-19T18:16:42.602Z,15
2023-02-19T18:21:48.829Z,14.5
2023-02-19T18:26:54.851Z,15
2023-02-19T18:32:00.972Z,14.5
2023-02-19T18:37:07.083Z,14.5
2023-02-19T18:42:13.185Z,15
2023-02-19T18:47:19.325Z,15
2023-02-19T18:52:25.437Z,14.5
2023-02-19T18:57:30.557Z,14.5
2023-02-19T19:02:36.660Z,14.5
2023-02-19T19:07:42.849Z,14.5
2023-02-19T19:12:48.936Z,14.5
2023-02-19T19:17:55.027Z,15
2023-02-19T19:23:01.134Z,15
2023-02-19T19:28:07.253Z,14.5
2023-02-19T19:33:13.414Z,14.5
2023-02-19T19:38:19.486Z,14.5
2023-02-19T19:43:25.603Z,14.5
2023-02-19T19:48:31.710Z,14.5
2023-02-19T19:53:37.873Z,14.5
2023-02-19T19:58:43.968Z,14.5
2023-02-19T20:03:49.113Z,14.5
2023-02-19T20:08:55.228Z,14.5
2023-02-19T20:14:01.332Z,14.5
2023-02-19T20:19:07.456Z,14.5
2023-02-19T20:24:13.576Z,14.5
2023-02-19T20:29:19.689Z,14.5
2023-02-19T20:34:25.809Z,14.5
2023-02-19T20:39:31.967Z,14.5
2023-02-19T20:44:38.021Z,14.5
2023-02-19T20:49:44.156Z,14.5
2023-02-19T20:54:50.265Z,14.5
2023-02-19T20:59:56.378Z,14.5
2023-02-19T21:05:02.489Z,14.5
2023-02-19T21:10:07.625Z,14.5
2023-02-19T21:15:13.805Z,14.5
2023-02-19T21:20:19.916Z,14.5
2023-02-19T21:25:25.987Z,14.5
2023-02-19T21:30:32.103Z,14.5
2023-02-19T21:35:38.214Z,14.5
2023-02-19T21:40:44.331Z,14.5
2023-02-19T21:45:50.437Z,14.5
2023-02-19T21:50:56.554Z,14.5
2023-02-19T21:56:02.666Z,14.5
2023-02-19T22:01:08.781Z,14.5
2023-02-19T22:06:14.906Z,14.5
2023-02-19T22:16:27.142Z,14.5
2023-02-19T22:21:32.341Z,14.5
2023-02-19T22:26:38.563Z,14.5
2023-02-19T22:31:44.490Z,14.5
2023-02-19T22:36:50.663Z,14.5
2023-02-19T22:41:56.738Z,14.5
2023-02-19T22:47:02.901Z,14.5
2023-02-19T22:52:09.017Z,14.5
2023-02-19T22:57:15.219Z,14.5
2023-02-19T23:02:21.273Z,14.5
2023-02-19T23:07:27.345Z,14.5
2023-02-19T23:12:33.455Z,14.5
2023-02-19T23:17:39.574Z,14.5
2023-02-19T23:22:45.701Z,14.5
2023-02-19T23:27:50.847Z,14.5
2023-02-19T23:32:56.946Z,14
2023-02-19T23:38:03.054Z,14
2023-02-19T23:43:09.165Z,14
2023-02-19T23:48:15.295Z,14
2023-02-19T23:53:21.405Z,14.5
2023-02-19T23:58:27.533Z,14
